sensor_id;sensor_type;location;lat;lon;timestamp;pressure;altitude;pressure_sealevel;temperature;humidity
80733;BME280;70130;44.534;18.678;2024-02-15T00:02:20;99801.31;;;1.28;93.68
80733;BME280;70130;44.534;18.678;2024-02-15T00:04:46;99793.31;;;1.23;93.80
80733;BME280;70130;44.534;18.678;2024-02-15T00:07:11;99805.13;;;0.99;94.95
80733;BME280;70130;44.534;18.678;2024-02-15T00:09:37;99786.44;;;1.05;94.79
80733;BME280;70130;44.534;18.678;2024-02-15T00:12:02;99792.81;;;1.09;94.95
80733;BME280;70130;44.534;18.678;2024-02-15T00:14:28;99801.72;;;1.20;95.00
80733;BME280;70130;44.534;18.678;2024-02-15T00:16:54;99786.66;;;1.04;95.10
80733;BME280;70130;44.534;18.678;2024-02-15T00:19:20;99801.91;;;1.13;95.04
80733;BME280;70130;44.534;18.678;2024-02-15T00:21:47;99806.91;;;1.15;95.15
80733;BME280;70130;44.534;18.678;2024-02-15T00:24:13;99795.25;;;1.11;95.06
80733;BME280;70130;44.534;18.678;2024-02-15T00:26:40;99804.69;;;1.07;95.42
80733;BME280;70130;44.534;18.678;2024-02-15T00:29:06;99807.75;;;0.99;95.58
80733;BME280;70130;44.534;18.678;2024-02-15T00:31:31;99811.16;;;1.16;95.51
80733;BME280;70130;44.534;18.678;2024-02-15T00:33:57;99809.19;;;1.06;95.28
80733;BME280;70130;44.534;18.678;2024-02-15T00:36:24;99773.94;;;1.01;95.08
80733;BME280;70130;44.534;18.678;2024-02-15T00:38:50;99800.91;;;1.19;94.84
80733;BME280;70130;44.534;18.678;2024-02-15T00:41:17;99803.47;;;1.31;94.68
80733;BME280;70130;44.534;18.678;2024-02-15T00:43:45;99803.38;;;1.26;94.57
80733;BME280;70130;44.534;18.678;2024-02-15T00:46:11;99787.53;;;1.09;94.62
80733;BME280;70130;44.534;18.678;2024-02-15T00:48:36;99782.09;;;1.16;94.65
80733;BME280;70130;44.534;18.678;2024-02-15T00:51:02;99802.28;;;1.22;94.63
80733;BME280;70130;44.534;18.678;2024-02-15T00:53:28;99809.19;;;1.23;94.88
80733;BME280;70130;44.534;18.678;2024-02-15T00:55:55;99801.25;;;1.23;95.03
80733;BME280;70130;44.534;18.678;2024-02-15T00:58:21;99791.94;;;1.20;95.02
80733;BME280;70130;44.534;18.678;2024-02-15T01:00:47;99797.38;;;1.14;95.44
80733;BME280;70130;44.534;18.678;2024-02-15T01:03:12;99794.44;;;1.10;95.15
80733;BME280;70130;44.534;18.678;2024-02-15T01:05:38;99801.78;;;1.25;95.34
80733;BME280;70130;44.534;18.678;2024-02-15T01:08:04;99790.34;;;1.19;95.07
80733;BME280;70130;44.534;18.678;2024-02-15T01:10:30;99792.81;;;1.26;94.90
80733;BME280;70130;44.534;18.678;2024-02-15T01:12:56;99793.69;;;1.32;95.01
80733;BME280;70130;44.534;18.678;2024-02-15T01:15:21;99781.44;;;1.25;94.65
80733;BME280;70130;44.534;18.678;2024-02-15T01:17:47;99778.84;;;1.30;95.00
80733;BME280;70130;44.534;18.678;2024-02-15T01:20:13;99782.88;;;1.33;95.07
80733;BME280;70130;44.534;18.678;2024-02-15T01:22:39;99765.88;;;1.29;94.74
80733;BME280;70130;44.534;18.678;2024-02-15T01:25:04;99779.81;;;1.41;94.89
80733;BME280;70130;44.534;18.678;2024-02-15T01:27:30;99758.44;;;1.26;95.16
80733;BME280;70130;44.534;18.678;2024-02-15T01:29:58;99772.53;;;1.32;95.63
80733;BME280;70130;44.534;18.678;2024-02-15T01:32:24;99771.53;;;1.16;96.06
80733;BME280;70130;44.534;18.678;2024-02-15T01:34:51;99774.59;;;1.08;96.65
80733;BME280;70130;44.534;18.678;2024-02-15T01:37:20;99748.81;;;0.98;96.50
80733;BME280;70130;44.534;18.678;2024-02-15T01:39:46;99789.47;;;1.14;96.57
80733;BME280;70130;44.534;18.678;2024-02-15T01:42:11;99790.59;;;1.01;96.99
80733;BME280;70130;44.534;18.678;2024-02-15T01:44:42;99775.97;;;0.77;97.70
80733;BME280;70130;44.534;18.678;2024-02-15T01:47:13;99781.19;;;0.89;98.21
80733;BME280;70130;44.534;18.678;2024-02-15T01:49:38;99771.53;;;0.99;97.91
80733;BME280;70130;44.534;18.678;2024-02-15T01:52:07;99753.75;;;0.95;97.63
80733;BME280;70130;44.534;18.678;2024-02-15T01:54:36;99768.16;;;1.04;97.51
80733;BME280;70130;44.534;18.678;2024-02-15T01:57:04;99764.97;;;1.02;97.42
80733;BME280;70130;44.534;18.678;2024-02-15T01:59:30;99763.78;;;0.93;97.76
80733;BME280;70130;44.534;18.678;2024-02-15T02:01:56;99759.47;;;0.86;98.23
80733;BME280;70130;44.534;18.678;2024-02-15T02:04:22;99754.59;;;0.78;98.45
80733;BME280;70130;44.534;18.678;2024-02-15T02:06:47;99763.94;;;0.86;98.40
80733;BME280;70130;44.534;18.678;2024-02-15T02:09:13;99763.44;;;0.89;98.30
80733;BME280;70130;44.534;18.678;2024-02-15T02:11:44;99764.09;;;0.79;98.80
80733;BME280;70130;44.534;18.678;2024-02-15T02:14:10;99766.59;;;0.86;98.76
80733;BME280;70130;44.534;18.678;2024-02-15T02:16:37;99760.44;;;0.80;98.53
80733;BME280;70130;44.534;18.678;2024-02-15T02:19:04;99779.56;;;0.88;98.51
80733;BME280;70130;44.534;18.678;2024-02-15T02:21:35;99771.25;;;0.79;98.39
80733;BME280;70130;44.534;18.678;2024-02-15T02:24:12;99769.66;;;0.78;98.38
80733;BME280;70130;44.534;18.678;2024-02-15T02:26:38;99767.72;;;0.73;98.53
80733;BME280;70130;44.534;18.678;2024-02-15T02:29:04;99769.31;;;0.74;98.67
80733;BME280;70130;44.534;18.678;2024-02-15T02:31:36;99767.22;;;0.76;98.67
80733;BME280;70130;44.534;18.678;2024-02-15T02:34:02;99783.00;;;0.71;98.68
80733;BME280;70130;44.534;18.678;2024-02-15T02:36:28;99768.81;;;0.61;98.65
80733;BME280;70130;44.534;18.678;2024-02-15T02:38:55;99782.34;;;0.64;98.87
80733;BME280;70130;44.534;18.678;2024-02-15T02:41:20;99775.50;;;0.63;98.61
80733;BME280;70130;44.534;18.678;2024-02-15T02:43:46;99774.38;;;0.59;98.36
80733;BME280;70130;44.534;18.678;2024-02-15T02:46:12;99789.97;;;0.61;98.61
80733;BME280;70130;44.534;18.678;2024-02-15T02:48:38;99783.06;;;0.60;98.73
80733;BME280;70130;44.534;18.678;2024-02-15T02:51:05;99766.34;;;0.37;98.93
80733;BME280;70130;44.534;18.678;2024-02-15T02:53:31;99793.47;;;0.50;98.96
80733;BME280;70130;44.534;18.678;2024-02-15T02:55:57;99787.72;;;0.53;99.23
80733;BME280;70130;44.534;18.678;2024-02-15T02:58:23;99775.88;;;0.38;99.18
80733;BME280;70130;44.534;18.678;2024-02-15T03:00:49;99790.41;;;0.41;99.31
80733;BME280;70130;44.534;18.678;2024-02-15T03:03:15;99792.81;;;0.42;99.38
80733;BME280;70130;44.534;18.678;2024-02-15T03:05:41;99796.00;;;0.44;99.47
80733;BME280;70130;44.534;18.678;2024-02-15T03:08:13;99795.25;;;0.44;99.74
80733;BME280;70130;44.534;18.678;2024-02-15T03:10:39;99799.72;;;0.43;99.63
80733;BME280;70130;44.534;18.678;2024-02-15T03:13:05;99799.22;;;0.47;99.50
80733;BME280;70130;44.534;18.678;2024-02-15T03:15:30;99809.22;;;0.44;99.91
80733;BME280;70130;44.534;18.678;2024-02-15T03:17:58;99800.44;;;0.39;100.00
80733;BME280;70130;44.534;18.678;2024-02-15T03:20:24;99801.56;;;0.43;100.00
80733;BME280;70130;44.534;18.678;2024-02-15T03:22:57;99808.44;;;0.44;99.64
80733;BME280;70130;44.534;18.678;2024-02-15T03:25:24;99813.00;;;0.49;99.73
80733;BME280;70130;44.534;18.678;2024-02-15T03:27:50;99800.13;;;0.52;99.83
80733;BME280;70130;44.534;18.678;2024-02-15T03:30:20;99812.13;;;0.43;99.72
80733;BME280;70130;44.534;18.678;2024-02-15T03:32:47;99799.38;;;0.40;99.50
80733;BME280;70130;44.534;18.678;2024-02-15T03:35:17;99804.09;;;0.38;99.83
80733;BME280;70130;44.534;18.678;2024-02-15T03:37:43;99799.47;;;0.45;99.57
80733;BME280;70130;44.534;18.678;2024-02-15T03:40:09;99793.16;;;0.46;99.11
80733;BME280;70130;44.534;18.678;2024-02-15T03:42:35;99794.97;;;0.46;99.37
80733;BME280;70130;44.534;18.678;2024-02-15T03:45:05;99791.97;;;0.25;99.47
80733;BME280;70130;44.534;18.678;2024-02-15T03:47:35;99774.88;;;0.28;99.72
80733;BME280;70130;44.534;18.678;2024-02-15T03:50:08;99792.97;;;0.36;99.79
80733;BME280;70130;44.534;18.678;2024-02-15T03:52:35;99799.28;;;0.35;99.65
80733;BME280;70130;44.534;18.678;2024-02-15T03:55:01;99809.06;;;0.34;99.86
80733;BME280;70130;44.534;18.678;2024-02-15T03:57:30;99799.53;;;0.33;100.00
80733;BME280;70130;44.534;18.678;2024-02-15T03:59:55;99799.72;;;0.43;99.71
80733;BME280;70130;44.534;18.678;2024-02-15T04:02:25;99809.38;;;0.38;100.00
80733;BME280;70130;44.534;18.678;2024-02-15T04:04:54;99820.41;;;0.35;100.00
80733;BME280;70130;44.534;18.678;2024-02-15T04:07:21;99810.91;;;0.34;100.00
80733;BME280;70130;44.534;18.678;2024-02-15T04:09:47;99799.19;;;0.30;100.00
80733;BME280;70130;44.534;18.678;2024-02-15T04:12:13;99794.81;;;0.35;100.00
80733;BME280;70130;44.534;18.678;2024-02-15T04:14:40;99810.19;;;0.38;100.00
80733;BME280;70130;44.534;18.678;2024-02-15T04:17:07;99810.63;;;0.35;100.00
80733;BME280;70130;44.534;18.678;2024-02-15T04:19:33;99810.56;;;0.30;100.00
80733;BME280;70130;44.534;18.678;2024-02-15T04:21:59;99816.22;;;0.22;100.00
80733;BME280;70130;44.534;18.678;2024-02-15T04:24:28;99812.78;;;0.22;100.00
80733;BME280;70130;44.534;18.678;2024-02-15T04:26:55;99817.63;;;0.13;100.00
80733;BME280;70130;44.534;18.678;2024-02-15T04:29:20;99815.91;;;0.19;100.00
80733;BME280;70130;44.534;18.678;2024-02-15T04:31:46;99813.25;;;0.19;100.00
80733;BME280;70130;44.534;18.678;2024-02-15T04:34:16;99798.50;;;0.06;100.00
80733;BME280;70130;44.534;18.678;2024-02-15T04:36:46;99814.41;;;0.11;100.00
80733;BME280;70130;44.534;18.678;2024-02-15T04:39:15;99810.66;;;0.07;100.00
80733;BME280;70130;44.534;18.678;2024-02-15T04:41:50;99814.31;;;0.06;100.00
80733;BME280;70130;44.534;18.678;2024-02-15T04:44:16;99782.06;;;-0.24;100.00
80733;BME280;70130;44.534;18.678;2024-02-15T04:46:41;99798.44;;;-0.11;100.00
80733;BME280;70130;44.534;18.678;2024-02-15T04:49:10;99782.38;;;-0.09;100.00
80733;BME280;70130;44.534;18.678;2024-02-15T04:51:36;99805.41;;;-0.05;100.00
80733;BME280;70130;44.534;18.678;2024-02-15T04:54:02;99806.56;;;-0.01;100.00
80733;BME280;70130;44.534;18.678;2024-02-15T04:56:27;99800.81;;;0.03;100.00
80733;BME280;70130;44.534;18.678;2024-02-15T04:58:53;99803.53;;;0.08;100.00
80733;BME280;70130;44.534;18.678;2024-02-15T05:01:19;99801.28;;;-0.01;100.00
80733;BME280;70130;44.534;18.678;2024-02-15T05:03:45;99814.59;;;0.05;100.00
80733;BME280;70130;44.534;18.678;2024-02-15T05:06:11;99796.66;;;-0.22;100.00
80733;BME280;70130;44.534;18.678;2024-02-15T05:08:41;99815.50;;;-0.02;100.00
80733;BME280;70130;44.534;18.678;2024-02-15T05:11:13;99806.41;;;0.06;100.00
80733;BME280;70130;44.534;18.678;2024-02-15T05:13:43;99803.53;;;0.08;100.00
80733;BME280;70130;44.534;18.678;2024-02-15T05:16:10;99795.44;;;-0.03;100.00
80733;BME280;70130;44.534;18.678;2024-02-15T05:18:36;99797.56;;;0.12;100.00
80733;BME280;70130;44.534;18.678;2024-02-15T05:21:04;99793.56;;;0.10;100.00
80733;BME280;70130;44.534;18.678;2024-02-15T05:23:30;99792.16;;;0.19;100.00
80733;BME280;70130;44.534;18.678;2024-02-15T05:25:55;99798.44;;;0.18;100.00
80733;BME280;70130;44.534;18.678;2024-02-15T05:28:22;99787.13;;;0.06;100.00
80733;BME280;70130;44.534;18.678;2024-02-15T05:31:11;99810.22;;;0.27;100.00
80733;BME280;70130;44.534;18.678;2024-02-15T05:33:40;99807.81;;;0.25;100.00
80733;BME280;70130;44.534;18.678;2024-02-15T05:36:13;99802.22;;;0.22;100.00
80733;BME280;70130;44.534;18.678;2024-02-15T05:38:41;99810.19;;;0.38;100.00
80733;BME280;70130;44.534;18.678;2024-02-15T05:41:11;99813.63;;;0.39;100.00
80733;BME280;70130;44.534;18.678;2024-02-15T05:43:38;99809.94;;;0.40;100.00
80733;BME280;70130;44.534;18.678;2024-02-15T05:46:04;99804.50;;;0.47;100.00
80733;BME280;70130;44.534;18.678;2024-02-15T05:48:32;99798.75;;;0.50;100.00
80733;BME280;70130;44.534;18.678;2024-02-15T05:51:04;99795.31;;;0.49;100.00
80733;BME280;70130;44.534;18.678;2024-02-15T05:53:30;99804.47;;;0.58;100.00
80733;BME280;70130;44.534;18.678;2024-02-15T05:55:56;99805.50;;;0.57;100.00
80733;BME280;70130;44.534;18.678;2024-02-15T05:58:24;99805.81;;;0.61;100.00
80733;BME280;70130;44.534;18.678;2024-02-15T06:00:49;99803.06;;;0.56;100.00
80733;BME280;70130;44.534;18.678;2024-02-15T06:03:16;99802.84;;;0.57;100.00
80733;BME280;70130;44.534;18.678;2024-02-15T06:05:42;99812.56;;;0.68;100.00
80733;BME280;70130;44.534;18.678;2024-02-15T06:08:09;99795.25;;;0.61;100.00
80733;BME280;70130;44.534;18.678;2024-02-15T06:10:38;99813.75;;;0.77;100.00
80733;BME280;70130;44.534;18.678;2024-02-15T06:13:03;99797.91;;;0.77;100.00
80733;BME280;70130;44.534;18.678;2024-02-15T06:15:29;99817.50;;;0.81;100.00
80733;BME280;70130;44.534;18.678;2024-02-15T06:17:55;99807.75;;;0.82;100.00
80733;BME280;70130;44.534;18.678;2024-02-15T06:20:20;99810.00;;;0.73;100.00
80733;BME280;70130;44.534;18.678;2024-02-15T06:22:47;99827.28;;;0.98;100.00
80733;BME280;70130;44.534;18.678;2024-02-15T06:25:13;99826.56;;;1.02;100.00
80733;BME280;70130;44.534;18.678;2024-02-15T06:27:40;99826.56;;;1.02;100.00
80733;BME280;70130;44.534;18.678;2024-02-15T06:30:12;99841.22;;;1.10;100.00
80733;BME280;70130;44.534;18.678;2024-02-15T06:32:57;99846.66;;;1.20;100.00
80733;BME280;70130;44.534;18.678;2024-02-15T06:35:41;99838.06;;;1.29;99.84
80733;BME280;70130;44.534;18.678;2024-02-15T06:38:25;99829.53;;;1.22;99.84
80733;BME280;70130;44.534;18.678;2024-02-15T06:41:10;99830.88;;;1.25;99.93
80733;BME280;70130;44.534;18.678;2024-02-15T06:43:36;99830.94;;;1.30;99.93
80733;BME280;70130;44.534;18.678;2024-02-15T06:46:02;99815.06;;;1.30;99.86
80733;BME280;70130;44.534;18.678;2024-02-15T06:48:28;99833.56;;;1.47;99.63
80733;BME280;70130;44.534;18.678;2024-02-15T06:50:54;99821.94;;;1.48;99.42
80733;BME280;70130;44.534;18.678;2024-02-15T06:53:19;99835.31;;;1.58;99.34
80733;BME280;70130;44.534;18.678;2024-02-15T06:55:48;99824.09;;;1.51;98.90
80733;BME280;70130;44.534;18.678;2024-02-15T06:58:15;99819.47;;;1.63;98.76
80733;BME280;70130;44.534;18.678;2024-02-15T07:00:42;99837.91;;;1.74;98.63
80733;BME280;70130;44.534;18.678;2024-02-15T07:03:08;99839.94;;;1.89;98.43
80733;BME280;70130;44.534;18.678;2024-02-15T07:05:34;99854.34;;;1.98;98.07
80733;BME280;70130;44.534;18.678;2024-02-15T07:08:01;99844.25;;;1.95;98.13
80733;BME280;70130;44.534;18.678;2024-02-15T07:10:26;99848.13;;;2.09;97.96
80733;BME280;70130;44.534;18.678;2024-02-15T07:12:52;99830.38;;;2.10;97.02
80733;BME280;70130;44.534;18.678;2024-02-15T07:15:17;99832.47;;;2.08;96.70
80733;BME280;70130;44.534;18.678;2024-02-15T07:17:43;99835.19;;;2.13;97.21
80733;BME280;70130;44.534;18.678;2024-02-15T07:20:12;99827.69;;;2.27;96.46
80733;BME280;70130;44.534;18.678;2024-02-15T07:22:39;99843.63;;;2.32;96.68
80733;BME280;70130;44.534;18.678;2024-02-15T07:25:05;99836.06;;;2.45;96.34
80733;BME280;70130;44.534;18.678;2024-02-15T07:27:30;99830.50;;;2.47;95.31
80733;BME280;70130;44.534;18.678;2024-02-15T07:29:59;99818.38;;;2.51;95.24
80733;BME280;70130;44.534;18.678;2024-02-15T07:32:24;99834.09;;;2.63;94.34
80733;BME280;70130;44.534;18.678;2024-02-15T07:34:50;99846.41;;;2.74;94.90
80733;BME280;70130;44.534;18.678;2024-02-15T07:37:15;99826.84;;;2.80;94.96
80733;BME280;70130;44.534;18.678;2024-02-15T07:39:41;99827.47;;;2.92;94.41
80733;BME280;70130;44.534;18.678;2024-02-15T07:42:07;99834.94;;;2.95;93.86
80733;BME280;70130;44.534;18.678;2024-02-15T07:44:38;99836.31;;;3.02;94.33
80733;BME280;70130;44.534;18.678;2024-02-15T07:47:03;99839.91;;;3.23;94.12
80733;BME280;70130;44.534;18.678;2024-02-15T07:49:30;99836.78;;;3.31;92.86
80733;BME280;70130;44.534;18.678;2024-02-15T07:51:55;99835.75;;;3.37;93.52
80733;BME280;70130;44.534;18.678;2024-02-15T07:54:21;99827.06;;;3.47;92.47
80733;BME280;70130;44.534;18.678;2024-02-15T07:56:47;99831.34;;;3.53;92.28
80733;BME280;70130;44.534;18.678;2024-02-15T07:59:16;99828.75;;;3.63;92.02
80733;BME280;70130;44.534;18.678;2024-02-15T08:01:44;99818.13;;;3.63;91.36
80733;BME280;70130;44.534;18.678;2024-02-15T08:04:18;99823.22;;;3.70;90.80
80733;BME280;70130;44.534;18.678;2024-02-15T08:06:45;99833.84;;;3.70;90.34
80733;BME280;70130;44.534;18.678;2024-02-15T08:09:11;99835.19;;;3.77;90.17
80733;BME280;70130;44.534;18.678;2024-02-15T08:11:40;99835.25;;;3.92;89.49
80733;BME280;70130;44.534;18.678;2024-02-15T08:14:06;99831.81;;;3.92;89.45
80733;BME280;70130;44.534;18.678;2024-02-15T08:16:35;99825.94;;;3.90;89.45
80733;BME280;70130;44.534;18.678;2024-02-15T08:19:01;99835.53;;;3.96;89.45
80733;BME280;70130;44.534;18.678;2024-02-15T08:21:31;99823.06;;;4.02;88.98
80733;BME280;70130;44.534;18.678;2024-02-15T08:24:04;99827.59;;;4.06;89.38
80733;BME280;70130;44.534;18.678;2024-02-15T08:26:36;99840.97;;;4.31;89.12
80733;BME280;70130;44.534;18.678;2024-02-15T08:29:03;99831.38;;;4.30;88.97
80733;BME280;70130;44.534;18.678;2024-02-15T08:31:29;99842.88;;;4.46;88.54
80733;BME280;70130;44.534;18.678;2024-02-15T08:33:59;99837.00;;;4.34;89.45
80733;BME280;70130;44.534;18.678;2024-02-15T08:36:26;99835.66;;;4.37;90.26
80733;BME280;70130;44.534;18.678;2024-02-15T08:38:51;99854.03;;;4.43;90.03
80733;BME280;70130;44.534;18.678;2024-02-15T08:41:17;99848.16;;;4.41;90.95
80733;BME280;70130;44.534;18.678;2024-02-15T08:43:44;99848.72;;;4.53;90.24
80733;BME280;70130;44.534;18.678;2024-02-15T08:46:11;99836.50;;;4.52;90.24
80733;BME280;70130;44.534;18.678;2024-02-15T08:48:38;99840.50;;;4.65;90.26
80733;BME280;70130;44.534;18.678;2024-02-15T08:51:03;99819.22;;;4.65;89.77
80733;BME280;70130;44.534;18.678;2024-02-15T08:53:31;99837.84;;;4.85;89.10
80733;BME280;70130;44.534;18.678;2024-02-15T08:55:57;99830.13;;;4.94;88.66
80733;BME280;70130;44.534;18.678;2024-02-15T08:58:23;99818.44;;;5.00;88.22
80733;BME280;70130;44.534;18.678;2024-02-15T09:00:49;99808.59;;;5.05;87.89
80733;BME280;70130;44.534;18.678;2024-02-15T09:03:14;99818.69;;;5.29;87.15
80733;BME280;70130;44.534;18.678;2024-02-15T09:05:40;99819.22;;;5.36;86.73
80733;BME280;70130;44.534;18.678;2024-02-15T09:08:06;99813.06;;;5.45;86.79
80733;BME280;70130;44.534;18.678;2024-02-15T09:10:32;99825.28;;;5.56;86.03
80733;BME280;70130;44.534;18.678;2024-02-15T09:12:58;99817.03;;;5.53;85.51
80733;BME280;70130;44.534;18.678;2024-02-15T09:15:23;99827.63;;;5.68;85.47
80733;BME280;70130;44.534;18.678;2024-02-15T09:17:50;99828.94;;;5.86;84.70
80733;BME280;70130;44.534;18.678;2024-02-15T09:20:16;99822.81;;;5.85;84.20
80733;BME280;70130;44.534;18.678;2024-02-15T09:22:50;99818.28;;;5.96;83.82
80733;BME280;70130;44.534;18.678;2024-02-15T09:25:19;99804.16;;;5.95;83.10
80733;BME280;70130;44.534;18.678;2024-02-15T09:27:45;99824.31;;;6.17;83.06
80733;BME280;70130;44.534;18.678;2024-02-15T09:30:14;99810.16;;;6.21;83.36
80733;BME280;70130;44.534;18.678;2024-02-15T09:32:40;99819.91;;;6.41;82.65
80733;BME280;70130;44.534;18.678;2024-02-15T09:35:07;99824.38;;;6.50;81.73
80733;BME280;70130;44.534;18.678;2024-02-15T09:37:45;99827.31;;;6.49;81.67
80733;BME280;70130;44.534;18.678;2024-02-15T09:40:14;99824.84;;;6.58;80.96
80733;BME280;70130;44.534;18.678;2024-02-15T09:42:41;99817.00;;;6.71;80.23
80733;BME280;70130;44.534;18.678;2024-02-15T09:45:11;99818.50;;;6.87;79.92
80733;BME280;70130;44.534;18.678;2024-02-15T09:47:46;99812.28;;;6.97;79.53
80733;BME280;70130;44.534;18.678;2024-02-15T09:50:16;99809.03;;;7.05;78.77
80733;BME280;70130;44.534;18.678;2024-02-15T09:52:50;99797.81;;;7.03;78.80
80733;BME280;70130;44.534;18.678;2024-02-15T09:55:17;99809.63;;;7.26;78.06
80733;BME280;70130;44.534;18.678;2024-02-15T09:57:45;99800.00;;;7.30;77.12
80733;BME280;70130;44.534;18.678;2024-02-15T10:00:14;99801.94;;;7.48;76.55
80733;BME280;70130;44.534;18.678;2024-02-15T10:02:42;99804.38;;;7.68;76.49
80733;BME280;70130;44.534;18.678;2024-02-15T10:05:10;99797.06;;;7.79;75.09
80733;BME280;70130;44.534;18.678;2024-02-15T10:07:43;99776.00;;;7.72;72.61
80733;BME280;70130;44.534;18.678;2024-02-15T10:10:19;99806.69;;;7.99;72.14
80733;BME280;70130;44.534;18.678;2024-02-15T10:12:48;99811.47;;;8.02;72.20
80733;BME280;70130;44.534;18.678;2024-02-15T10:15:36;99807.72;;;8.03;72.55
80733;BME280;70130;44.534;18.678;2024-02-15T10:18:08;99806.09;;;8.02;72.35
80733;BME280;70130;44.534;18.678;2024-02-15T10:20:36;99801.78;;;8.06;72.51
80733;BME280;70130;44.534;18.678;2024-02-15T10:23:11;99804.56;;;7.96;73.30
80733;BME280;70130;44.534;18.678;2024-02-15T10:25:37;99817.56;;;8.26;72.28
80733;BME280;70130;44.534;18.678;2024-02-15T10:28:07;99802.00;;;8.33;72.12
80733;BME280;70130;44.534;18.678;2024-02-15T10:30:34;99802.63;;;8.44;71.28
80733;BME280;70130;44.534;18.678;2024-02-15T10:33:01;99801.19;;;8.51;71.13
80733;BME280;70130;44.534;18.678;2024-02-15T10:35:28;99795.97;;;8.60;70.82
80733;BME280;70130;44.534;18.678;2024-02-15T10:38:10;99795.31;;;8.68;71.43
80733;BME280;70130;44.534;18.678;2024-02-15T10:40:40;99788.13;;;8.63;71.90
80733;BME280;70130;44.534;18.678;2024-02-15T10:43:10;99786.69;;;8.71;71.65
80733;BME280;70130;44.534;18.678;2024-02-15T10:45:39;99771.47;;;8.85;70.73
80733;BME280;70130;44.534;18.678;2024-02-15T10:48:08;99769.53;;;8.91;69.86
80733;BME280;70130;44.534;18.678;2024-02-15T10:50:33;99769.16;;;8.79;70.06
80733;BME280;70130;44.534;18.678;2024-02-15T10:52:59;99767.91;;;8.90;69.89
80733;BME280;70130;44.534;18.678;2024-02-15T10:55:34;99759.41;;;8.88;69.90
80733;BME280;70130;44.534;18.678;2024-02-15T10:58:01;99765.06;;;9.00;69.14
80733;BME280;70130;44.534;18.678;2024-02-15T11:00:33;99761.44;;;9.23;67.40
80733;BME280;70130;44.534;18.678;2024-02-15T11:03:03;99756.09;;;9.23;68.54
80733;BME280;70130;44.534;18.678;2024-02-15T11:05:33;99754.81;;;9.21;67.71
80733;BME280;70130;44.534;18.678;2024-02-15T11:08:01;99745.22;;;9.47;66.94
80733;BME280;70130;44.534;18.678;2024-02-15T11:10:30;99747.16;;;9.69;66.94
80733;BME280;70130;44.534;18.678;2024-02-15T11:12:56;99738.41;;;9.77;64.54
80733;BME280;70130;44.534;18.678;2024-02-15T11:15:45;99736.53;;;9.91;63.73
80733;BME280;70130;44.534;18.678;2024-02-15T11:18:47;99737.41;;;10.00;62.95
80733;BME280;70130;44.534;18.678;2024-02-15T11:21:17;99725.94;;;10.08;63.59
80733;BME280;70130;44.534;18.678;2024-02-15T11:23:46;99727.06;;;10.21;62.81
80733;BME280;70130;44.534;18.678;2024-02-15T11:26:43;99721.25;;;10.27;63.10
80733;BME280;70130;44.534;18.678;2024-02-15T11:43:06;99691.31;;;10.56;61.99
80733;BME280;70130;44.534;18.678;2024-02-15T11:45:32;99690.72;;;10.59;61.62
80733;BME280;70130;44.534;18.678;2024-02-15T11:48:10;99690.72;;;10.59;62.51
80733;BME280;70130;44.534;18.678;2024-02-15T11:50:37;99689.25;;;10.75;62.06
80733;BME280;70130;44.534;18.678;2024-02-15T11:53:07;99693.06;;;10.83;61.21
80733;BME280;70130;44.534;18.678;2024-02-15T11:55:37;99692.03;;;11.01;60.19
80733;BME280;70130;44.534;18.678;2024-02-15T11:58:04;99669.41;;;10.94;60.21
80733;BME280;70130;44.534;18.678;2024-02-15T12:00:42;99681.66;;;11.08;59.72
80733;BME280;70130;44.534;18.678;2024-02-15T12:03:27;99678.47;;;11.06;60.09
80733;BME280;70130;44.534;18.678;2024-02-15T12:06:11;99663.78;;;11.04;60.23
80733;BME280;70130;44.534;18.678;2024-02-15T12:08:56;99667.28;;;11.13;59.95
80733;BME280;70130;44.534;18.678;2024-02-15T12:11:40;99645.63;;;11.09;59.39
80733;BME280;70130;44.534;18.678;2024-02-15T12:14:25;99639.00;;;11.15;59.17
80733;BME280;70130;44.534;18.678;2024-02-15T12:17:10;99653.28;;;11.24;58.21
80733;BME280;70130;44.534;18.678;2024-02-15T12:19:56;99663.25;;;11.41;58.29
80733;BME280;70130;44.534;18.678;2024-02-15T12:22:26;99660.31;;;11.68;58.18
80733;BME280;70130;44.534;18.678;2024-02-15T12:24:59;99657.00;;;11.63;57.59
80733;BME280;70130;44.534;18.678;2024-02-15T12:27:41;99653.81;;;11.69;57.84
80733;BME280;70130;44.534;18.678;2024-02-15T12:30:18;99650.38;;;11.78;57.29
80733;BME280;70130;44.534;18.678;2024-02-15T12:32:49;99651.28;;;11.56;57.16
80733;BME280;70130;44.534;18.678;2024-02-15T12:35:22;99628.31;;;11.41;57.22
80733;BME280;70130;44.534;18.678;2024-02-15T12:38:03;99646.22;;;11.54;57.40
80733;BME280;70130;44.534;18.678;2024-02-15T12:40:37;99640.38;;;11.52;57.23
80733;BME280;70130;44.534;18.678;2024-02-15T12:43:07;99637.84;;;11.64;57.16
80733;BME280;70130;44.534;18.678;2024-02-15T12:45:41;99639.78;;;11.81;56.54
80733;BME280;70130;44.534;18.678;2024-02-15T12:48:07;99629.38;;;11.88;55.90
80733;BME280;70130;44.534;18.678;2024-02-15T12:50:34;99625.84;;;11.79;56.07
80733;BME280;70130;44.534;18.678;2024-02-15T12:53:00;99632.84;;;11.97;56.41
80733;BME280;70130;44.534;18.678;2024-02-15T12:55:29;99617.31;;;11.94;56.13
80733;BME280;70130;44.534;18.678;2024-02-15T12:58:14;99614.47;;;11.99;55.61
80733;BME280;70130;44.534;18.678;2024-02-15T13:00:40;99610.53;;;11.97;56.04
80733;BME280;70130;44.534;18.678;2024-02-15T13:03:09;99626.34;;;11.98;56.21
80733;BME280;70130;44.534;18.678;2024-02-15T13:05:37;99629.66;;;12.13;55.90
80733;BME280;70130;44.534;18.678;2024-02-15T13:08:03;99612.59;;;11.91;55.51
80733;BME280;70130;44.534;18.678;2024-02-15T13:10:31;99632.03;;;12.05;55.54
80733;BME280;70130;44.534;18.678;2024-02-15T13:12:57;99625.53;;;12.06;55.73
80733;BME280;70130;44.534;18.678;2024-02-15T13:15:23;99617.59;;;12.19;55.33
80733;BME280;70130;44.534;18.678;2024-02-15T13:17:53;99622.22;;;12.09;54.98
80733;BME280;70130;44.534;18.678;2024-02-15T13:20:21;99622.03;;;12.32;55.65